createdAt,value
2023-04-03T00:00:33.301Z,28.19
2023-04-03T00:01:33.153Z,28.22
2023-04-03T00:02:33.171Z,28.17
2023-04-03T00:03:33.169Z,28.18
2023-04-03T00:04:33.865Z,28.17
2023-04-03T00:05:33.347Z,28.23
2023-04-03T00:06:33.221Z,28.20
2023-04-03T00:07:33.256Z,28.20
2023-04-03T00:08:33.249Z,28.23
2023-04-03T00:09:33.342Z,28.21
2023-04-03T00:10:33.342Z,28.17
2023-04-03T00:11:33.343Z,28.20
2023-04-03T00:12:33.398Z,28.18
2023-04-03T00:13:33.467Z,28.21
2023-04-03T00:14:33.419Z,28.12
2023-04-03T00:15:33.595Z,28.21
2023-04-03T00:16:33.516Z,28.20
2023-04-03T00:17:33.504Z,28.17
2023-04-03T00:18:33.545Z,28.18
2023-04-03T00:19:33.557Z,28.18
2023-04-03T00:20:33.626Z,28.16
2023-04-03T00:21:33.593Z,28.20
2023-04-03T00:22:33.678Z,28.20
2023-04-03T00:23:33.764Z,28.23
2023-04-03T00:24:33.684Z,28.26
2023-04-03T00:25:33.752Z,28.18
2023-04-03T00:26:33.761Z,28.20
2023-04-03T00:27:33.768Z,28.20
2023-04-03T00:28:33.781Z,28.20
2023-04-03T00:29:33.828Z,28.20
2023-04-03T00:30:33.821Z,28.21
2023-04-03T00:31:34.390Z,28.23
2023-04-03T00:32:34.418Z,28.18
2023-04-03T00:33:33.953Z,28.18
2023-04-03T00:34:33.923Z,28.15
2023-04-03T00:35:33.974Z,28.21
2023-04-03T00:36:35.043Z,28.30
2023-04-03T00:37:34.142Z,28.24
2023-04-03T00:38:34.078Z,28.20
2023-04-03T00:39:34.090Z,28.23
2023-04-03T00:40:34.352Z,28.20
2023-04-03T00:41:34.177Z,28.21
2023-04-03T00:42:34.153Z,28.15
2023-04-03T00:43:34.214Z,28.23
2023-04-03T00:44:34.257Z,28.20
2023-04-03T00:45:34.237Z,28.18
2023-04-03T00:46:34.300Z,28.20
2023-04-03T00:47:34.462Z,28.23
2023-04-03T00:48:34.410Z,28.24
2023-04-03T00:49:34.444Z,28.26
2023-04-03T00:50:34.593Z,28.20
2023-04-03T00:51:34.433Z,28.21
2023-04-03T00:52:34.451Z,28.20
2023-04-03T00:53:34.502Z,28.18
2023-04-03T00:54:34.577Z,28.23
2023-04-03T00:55:34.569Z,28.24
2023-04-03T00:56:34.593Z,28.17
2023-04-03T00:57:34.717Z,28.23
2023-04-03T00:58:34.703Z,28.21
2023-04-03T00:59:34.716Z,28.26
2023-04-03T01:00:34.994Z,28.23
2023-04-03T01:01:34.772Z,28.20
2023-04-03T01:02:34.787Z,28.26
2023-04-03T01:03:34.747Z,28.20
2023-04-03T01:04:34.833Z,28.21
2023-04-03T01:05:34.807Z,28.23
2023-04-03T01:06:34.878Z,28.27
2023-04-03T01:07:34.873Z,28.24
2023-04-03T01:08:34.870Z,28.24
2023-04-03T01:09:34.920Z,28.23
2023-04-03T01:10:37.046Z,28.24
2023-04-03T01:11:35.019Z,28.14
2023-04-03T01:12:35.219Z,28.24
2023-04-03T01:13:35.053Z,28.24
2023-04-03T01:14:35.103Z,28.20
2023-04-03T01:15:35.109Z,28.23
2023-04-03T01:16:35.276Z,28.18
2023-04-03T01:17:35.173Z,28.26
2023-04-03T01:18:35.230Z,28.21
2023-04-03T01:19:35.251Z,28.15
2023-04-03T01:20:35.566Z,28.21
2023-04-03T01:21:35.237Z,28.18
2023-04-03T01:22:35.378Z,28.24
2023-04-03T01:23:35.372Z,28.24
2023-04-03T01:24:35.371Z,28.26
2023-04-03T01:25:35.407Z,28.18
2023-04-03T01:26:35.433Z,28.23
2023-04-03T01:27:35.485Z,28.20
2023-04-03T01:28:35.546Z,28.24
2023-04-03T01:29:35.514Z,28.23
2023-04-03T01:30:35.823Z,28.21
2023-04-03T01:31:35.625Z,28.21
2023-04-03T01:32:35.638Z,28.18
2023-04-03T01:33:35.625Z,28.17
2023-04-03T01:34:35.675Z,28.20
2023-04-03T01:35:35.714Z,28.14
2023-04-03T01:36:35.742Z,28.20
2023-04-03T01:37:35.740Z,28.17
2023-04-03T01:38:35.774Z,28.21
2023-04-03T01:39:35.796Z,28.18
2023-04-03T01:40:35.977Z,28.17
2023-04-03T01:41:35.946Z,28.15
2023-04-03T01:42:35.918Z,28.18
2023-04-03T01:43:35.935Z,28.24
2023-04-03T01:44:35.913Z,28.23
2023-04-03T01:45:36.021Z,28.15
2023-04-03T01:46:36.028Z,28.15
2023-04-03T01:47:36.398Z,28.21
2023-04-03T01:48:35.996Z,28.17
2023-04-03T01:49:36.099Z,28.24
2023-04-03T01:50:36.214Z,28.18
2023-04-03T01:51:36.160Z,28.21
2023-04-03T01:52:36.207Z,28.20
2023-04-03T01:53:36.229Z,28.21
2023-04-03T01:54:36.237Z,28.23
2023-04-03T01:55:36.438Z,28.21
2023-04-03T01:56:36.311Z,28.23
2023-04-03T01:57:36.403Z,28.19
2023-04-03T01:58:36.368Z,28.17
2023-04-03T01:59:36.943Z,28.21
2023-04-03T02:00:36.632Z,28.15
2023-04-03T02:01:36.506Z,28.15
2023-04-03T02:02:36.481Z,28.19
2023-04-03T02:03:36.531Z,28.21
2023-04-03T02:04:36.519Z,28.12
2023-04-03T02:05:36.930Z,28.18
2023-04-03T02:06:36.606Z,28.17
2023-04-03T02:07:36.631Z,28.24
2023-04-03T02:08:36.644Z,28.23
2023-04-03T02:09:36.711Z,28.17
2023-04-03T02:10:36.862Z,28.23
2023-04-03T02:11:36.855Z,28.23
2023-04-03T02:12:36.861Z,28.22
2023-04-03T02:13:36.812Z,28.17
2023-04-03T02:14:36.933Z,28.24
2023-04-03T02:15:36.877Z,28.13
2023-04-03T02:16:37.015Z,28.21
2023-04-03T02:17:38.037Z,28.24
2023-04-03T02:18:36.962Z,28.24
2023-04-03T02:19:37.417Z,28.25
2023-04-03T02:20:37.160Z,28.27
2023-04-03T02:21:37.079Z,28.19
2023-04-03T02:22:37.102Z,28.23
2023-04-03T02:23:37.158Z,28.25
2023-04-03T02:24:37.135Z,28.21
2023-04-03T02:25:38.748Z,28.21
2023-04-03T02:26:37.202Z,28.19
2023-04-03T02:27:37.224Z,28.22
2023-04-03T02:28:37.269Z,28.25
2023-04-03T02:29:37.280Z,28.27
2023-04-03T02:30:37.546Z,28.25
2023-04-03T02:31:37.336Z,28.21
2023-04-03T02:32:37.431Z,28.24
2023-04-03T02:33:37.422Z,28.23
2023-04-03T02:34:37.490Z,28.19
2023-04-03T02:35:37.508Z,28.21
2023-04-03T02:36:37.629Z,28.19
2023-04-03T02:37:37.544Z,28.22
2023-04-03T02:38:37.620Z,28.25
2023-04-03T02:39:37.627Z,28.22
2023-04-03T02:40:37.827Z,28.18
2023-04-03T02:41:37.668Z,28.22
2023-04-03T02:42:37.721Z,28.21
2023-04-03T02:43:37.731Z,28.22
2023-04-03T02:44:37.784Z,28.18
2023-04-03T02:45:37.805Z,28.18
2023-04-03T02:46:37.933Z,28.22
2023-04-03T02:47:37.895Z,28.19
2023-04-03T02:48:37.934Z,28.19
2023-04-03T02:49:37.921Z,28.21
2023-04-03T02:50:38.248Z,28.22
2023-04-03T02:51:38.050Z,28.21
2023-04-03T02:52:38.006Z,28.22
2023-04-03T02:53:38.054Z,28.19
2023-04-03T02:54:38.128Z,28.21
2023-04-03T02:55:38.128Z,28.21
2023-04-03T02:56:38.157Z,28.21
2023-04-03T02:57:38.187Z,28.21
2023-04-03T02:58:38.214Z,28.19
2023-04-03T02:59:38.280Z,28.21
2023-04-03T03:00:38.603Z,28.19
2023-04-03T03:01:38.479Z,28.19
2023-04-03T03:02:38.566Z,28.22
2023-04-03T03:03:38.392Z,28.21
2023-04-03T03:04:38.438Z,28.18
2023-04-03T03:05:38.460Z,28.17
2023-04-03T03:06:38.560Z,28.25
2023-04-03T03:07:38.526Z,28.21
2023-04-03T03:08:38.543Z,28.16
2023-04-03T03:09:38.580Z,28.19
2023-04-03T03:10:39.001Z,28.13
2023-04-03T03:11:38.661Z,28.18
2023-04-03T03:12:38.653Z,28.19
2023-04-03T03:13:38.707Z,28.18
2023-04-03T03:14:38.729Z,28.18
2023-04-03T03:15:38.820Z,28.18
2023-04-03T03:16:38.829Z,28.18
2023-04-03T03:17:38.886Z,28.18
2023-04-03T03:18:38.822Z,28.16
2023-04-03T03:19:38.929Z,28.19
2023-04-03T03:20:39.017Z,28.16
2023-04-03T03:21:38.972Z,28.19
2023-04-03T03:22:39.026Z,28.19
2023-04-03T03:23:39.022Z,28.22
2023-04-03T03:24:39.054Z,28.18
2023-04-03T03:25:39.343Z,28.16
2023-04-03T03:26:39.111Z,28.21
2023-04-03T03:27:39.115Z,28.18
2023-04-03T03:28:39.176Z,28.21
2023-04-03T03:29:39.170Z,28.19
2023-04-03T03:30:39.236Z,28.19
2023-04-03T03:31:39.326Z,28.21
2023-04-03T03:32:39.328Z,28.18
2023-04-03T03:33:39.324Z,28.19
2023-04-03T03:34:39.364Z,28.15
2023-04-03T03:35:39.592Z,28.19
2023-04-03T03:36:39.377Z,28.18
2023-04-03T03:37:39.480Z,28.21
2023-04-03T03:38:39.434Z,28.22
2023-04-03T03:39:39.480Z,28.16
2023-04-03T03:40:39.514Z,28.21
2023-04-03T03:41:39.561Z,28.17
2023-04-03T03:42:39.596Z,28.22
2023-04-03T03:43:39.610Z,28.22
2023-04-03T03:44:39.649Z,28.16
2023-04-03T03:45:39.787Z,28.18
2023-04-03T03:46:39.799Z,28.22
2023-04-03T03:47:39.810Z,28.18
2023-04-03T03:48:39.739Z,28.16
2023-04-03T03:49:39.917Z,28.25
2023-04-03T03:50:39.867Z,28.19
2023-04-03T03:51:39.864Z,28.17
2023-04-03T03:52:39.910Z,28.21
2023-04-03T03:53:39.956Z,28.19
2023-04-03T03:54:39.964Z,28.13
2023-04-03T03:55:40.048Z,28.19
2023-04-03T03:56:40.021Z,28.22
2023-04-03T03:57:40.059Z,28.16
2023-04-03T03:58:40.100Z,28.21
2023-04-03T03:59:40.149Z,28.22
2023-04-03T04:00:40.207Z,28.20
2023-04-03T04:01:40.258Z,28.17
2023-04-03T04:02:40.379Z,28.16
2023-04-03T04:03:40.401Z,28.15
2023-04-03T04:04:40.437Z,28.19
2023-04-03T04:05:40.482Z,28.12
2023-04-03T04:06:40.411Z,28.13
2023-04-03T04:07:40.419Z,28.09
2023-04-03T04:08:40.978Z,28.04
2023-04-03T04:09:40.467Z,28.01
2023-04-03T04:10:41.058Z,27.99
2023-04-03T04:11:40.547Z,27.89
2023-04-03T04:12:40.572Z,27.87
2023-04-03T04:13:40.614Z,27.89
2023-04-03T04:14:40.658Z,27.85
2023-04-03T04:15:40.823Z,27.78
2023-04-03T04:16:40.754Z,27.76
2023-04-03T04:17:40.777Z,27.71
2023-04-03T04:18:40.767Z,27.72
2023-04-03T04:19:40.822Z,27.65
2023-04-03T04:20:40.864Z,27.57
2023-04-03T04:21:40.899Z,27.52
2023-04-03T04:22:40.973Z,27.52
2023-04-03T04:23:40.976Z,27.50
2023-04-03T04:24:41.028Z,27.42
2023-04-03T04:25:41.984Z,27.39
2023-04-03T04:26:41.165Z,27.31
2023-04-03T04:27:41.145Z,27.38
2023-04-03T04:28:41.175Z,27.33
2023-04-03T04:29:41.230Z,27.35
2023-04-03T04:30:41.250Z,27.25
2023-04-03T04:31:41.276Z,27.25
2023-04-03T04:32:41.357Z,27.22
2023-04-03T04:33:41.348Z,27.10
2023-04-03T04:34:41.406Z,27.23
2023-04-03T04:35:41.684Z,27.19
2023-04-03T04:36:41.605Z,27.23
2023-04-03T04:37:41.480Z,27.19
2023-04-03T04:38:41.514Z,27.22
2023-04-03T04:39:41.573Z,27.22
2023-04-03T04:40:41.640Z,27.17
2023-04-03T04:41:41.628Z,27.20
2023-04-03T04:42:41.697Z,27.20
2023-04-03T04:43:41.693Z,27.23
2023-04-03T04:44:41.770Z,27.26
2023-04-03T04:45:41.775Z,27.23
2023-04-03T04:46:41.800Z,27.19
2023-04-03T04:47:41.825Z,27.23
2023-04-03T04:48:41.862Z,27.25
2023-04-03T04:49:41.872Z,27.22
2023-04-03T04:50:41.874Z,27.25
2023-04-03T04:51:51.553Z,27.29
2023-04-03T04:52:42.897Z,27.27
2023-04-03T04:53:41.932Z,27.25
2023-04-03T04:54:41.991Z,27.25
2023-04-03T04:55:41.911Z,27.29
2023-04-03T04:56:41.850Z,27.30
2023-04-03T04:57:41.868Z,27.29
2023-04-03T04:58:41.863Z,27.30
2023-04-03T04:59:41.861Z,27.34
2023-04-03T05:00:41.835Z,27.34
2023-04-03T05:01:41.852Z,27.34
2023-04-03T05:02:41.918Z,27.30
2023-04-03T05:03:41.866Z,27.28
2023-04-03T05:04:41.845Z,27.34
2023-04-03T05:05:41.809Z,27.36
2023-04-03T05:06:41.827Z,27.30
2023-04-03T05:07:41.833Z,27.33
2023-04-03T05:08:41.792Z,27.31
2023-04-03T05:09:41.801Z,27.34
2023-04-03T05:10:41.907Z,27.34
2023-04-03T05:11:41.889Z,27.34
2023-04-03T05:12:41.925Z,27.33
2023-04-03T05:13:41.939Z,27.37
2023-04-03T05:14:41.945Z,27.34
2023-04-03T05:15:42.002Z,27.38
2023-04-03T05:16:42.012Z,27.36
2023-04-03T05:17:42.051Z,27.36
2023-04-03T05:18:42.048Z,27.39
2023-04-03T05:19:42.112Z,27.39
2023-04-03T05:20:42.122Z,27.40
2023-04-03T05:21:42.134Z,27.38
2023-04-03T05:22:42.134Z,27.41
2023-04-03T05:23:42.206Z,27.41
2023-04-03T05:24:42.219Z,27.44
2023-04-03T05:25:42.429Z,27.45
2023-04-03T05:26:42.992Z,27.38
2023-04-03T05:27:42.330Z,27.44
2023-04-03T05:28:42.378Z,27.41
2023-04-03T05:29:43.868Z,27.42
2023-04-03T05:30:42.617Z,27.42
2023-04-03T05:31:42.820Z,27.39
2023-04-03T05:32:42.613Z,27.47
2023-04-03T05:33:42.631Z,27.45
2023-04-03T05:34:42.646Z,27.42
2023-04-03T05:35:42.893Z,27.42
2023-04-03T05:36:42.702Z,27.39
2023-04-03T05:37:42.704Z,27.42
2023-04-03T05:38:42.786Z,27.37
2023-04-03T05:39:43.479Z,27.44
2023-04-03T05:40:42.812Z,27.43
2023-04-03T05:41:42.840Z,27.44
2023-04-03T05:42:42.883Z,27.41
2023-04-03T05:43:42.899Z,27.43
2023-04-03T05:44:42.888Z,27.41
2023-04-03T05:45:44.123Z,27.49
2023-04-03T05:46:42.983Z,27.43
2023-04-03T05:47:43.071Z,27.41
2023-04-03T05:48:43.032Z,27.37
2023-04-03T05:49:43.073Z,27.38
2023-04-03T05:50:44.075Z,27.36
2023-04-03T05:51:43.198Z,27.36
2023-04-03T05:52:43.969Z,27.39
2023-04-03T05:53:43.176Z,27.34
2023-04-03T05:54:43.232Z,27.36
2023-04-03T05:55:43.257Z,27.34
2023-04-03T05:56:43.289Z,27.39
2023-04-03T05:57:43.371Z,27.42
2023-04-03T05:58:43.399Z,27.37
2023-04-03T05:59:43.450Z,27.36
2023-04-03T06:00:43.468Z,27.30
2023-04-03T06:01:43.459Z,27.39
2023-04-03T06:02:43.568Z,27.35
2023-04-03T06:03:43.746Z,27.38
2023-04-03T06:04:43.633Z,27.42
2023-04-03T06:05:43.620Z,27.45
2023-04-03T06:06:43.626Z,27.39
2023-04-03T06:07:43.642Z,27.35
2023-04-03T06:08:43.689Z,27.39
2023-04-03T06:09:43.754Z,27.39
2023-04-03T06:10:43.758Z,27.37
2023-04-03T06:11:43.732Z,27.39
2023-04-03T06:12:43.750Z,27.38
2023-04-03T06:13:44.461Z,27.37
2023-04-03T06:14:43.836Z,27.40
2023-04-03T06:15:43.819Z,27.38
2023-04-03T06:16:43.901Z,27.38
2023-04-03T06:17:43.933Z,27.35
2023-04-03T06:18:43.918Z,27.35
2023-04-03T06:19:43.960Z,27.37
2023-04-03T06:20:43.965Z,27.38
2023-04-03T06:21:44.056Z,27.38
2023-04-03T06:22:44.462Z,27.38
2023-04-03T06:23:44.031Z,27.35
2023-04-03T06:24:44.035Z,27.34
2023-04-03T06:25:44.061Z,27.37
2023-04-03T06:26:44.104Z,27.37
2023-04-03T06:27:44.106Z,27.36
2023-04-03T06:28:44.081Z,27.33
2023-04-03T06:29:44.232Z,27.34
2023-04-03T06:30:44.104Z,27.34
2023-04-03T06:31:44.178Z,27.36
2023-04-03T06:32:44.198Z,27.33
2023-04-03T06:33:44.211Z,27.36
2023-04-03T06:34:44.198Z,27.34
2023-04-03T06:35:44.264Z,27.39
2023-04-03T06:36:44.259Z,27.34
2023-04-03T06:37:44.225Z,27.36
2023-04-03T06:38:44.247Z,27.33
2023-04-03T06:39:44.252Z,27.36
2023-04-03T06:40:45.023Z,27.35
2023-04-03T06:41:44.279Z,27.38
2023-04-03T06:42:44.315Z,27.35
2023-04-03T06:43:44.535Z,27.38
2023-04-03T06:44:44.793Z,27.35
2023-04-03T06:45:44.397Z,27.35
2023-04-03T06:46:44.388Z,27.32
2023-04-03T06:47:44.443Z,27.36
2023-04-03T06:48:44.631Z,27.31
2023-04-03T06:49:44.457Z,27.33
2023-04-03T06:50:44.470Z,27.26
2023-04-03T06:52:21.001Z,27.35
2023-04-03T06:53:21.012Z,27.35
2023-04-03T06:54:20.994Z,27.35
2023-04-03T06:55:21.023Z,27.32
2023-04-03T06:56:20.968Z,27.37
2023-04-03T06:57:20.969Z,27.32
2023-04-03T06:58:21.896Z,27.33
2023-04-03T06:59:20.924Z,27.38
2023-04-03T07:00:20.938Z,27.32
2023-04-03T07:01:21.022Z,27.34
2023-04-03T07:02:20.981Z,27.31
2023-04-03T07:03:20.910Z,27.35
2023-04-03T07:04:20.919Z,27.35
2023-04-03T07:05:20.931Z,27.34
2023-04-03T07:06:20.929Z,27.35
2023-04-03T07:07:20.881Z,27.35
2023-04-03T07:08:20.877Z,27.38
2023-04-03T07:09:20.915Z,27.34
2023-04-03T07:10:20.971Z,27.35
2023-04-03T07:11:20.951Z,27.32
2023-04-03T07:12:20.958Z,27.35
2023-04-03T07:13:20.941Z,27.31
2023-04-03T07:14:20.960Z,27.37
2023-04-03T07:15:20.991Z,27.30
2023-04-03T07:16:21.336Z,27.31
2023-04-03T07:17:21.065Z,27.33
2023-04-03T07:18:21.054Z,27.34
2023-04-03T07:19:21.085Z,27.36
2023-04-03T07:20:21.169Z,27.37
2023-04-03T07:21:21.335Z,27.39
2023-04-03T07:22:21.182Z,27.37
2023-04-03T07:23:21.251Z,27.39
2023-04-03T07:24:21.258Z,27.41
2023-04-03T07:25:21.327Z,27.37
2023-04-03T07:26:21.319Z,27.37
2023-04-03T07:27:21.334Z,27.34
2023-04-03T07:28:21.375Z,27.34
2023-04-03T07:29:21.405Z,27.33
2023-04-03T07:30:21.407Z,27.42
2023-04-03T07:31:21.476Z,27.40
2023-04-03T07:32:21.489Z,27.41
2023-04-03T07:33:21.590Z,27.40
2023-04-03T07:34:21.517Z,27.36
2023-04-03T07:35:21.576Z,27.30
2023-04-03T07:36:21.726Z,27.30
2023-04-03T07:37:21.642Z,27.34
2023-04-03T07:38:22.243Z,27.36
2023-04-03T07:39:21.945Z,27.39
2023-04-03T07:40:21.795Z,27.41
2023-04-03T07:41:21.817Z,27.42
2023-04-03T07:42:21.861Z,27.36
2023-04-03T07:43:21.868Z,27.37
2023-04-03T07:44:21.870Z,27.32
2023-04-03T07:45:21.919Z,27.32
2023-04-03T07:46:22.323Z,27.24
2023-04-03T07:47:22.048Z,27.27
2023-04-03T07:48:22.064Z,27.26
2023-04-03T07:49:22.045Z,27.15
2023-04-03T07:50:22.121Z,27.21
2023-04-03T07:51:22.134Z,27.21
2023-04-03T07:52:22.215Z,27.26
2023-04-03T07:53:22.186Z,27.30
2023-04-03T07:54:22.253Z,27.32
2023-04-03T07:55:22.245Z,27.26
2023-04-03T07:56:22.296Z,27.32
2023-04-03T07:57:22.344Z,27.26
2023-04-03T07:58:22.379Z,27.32
2023-04-03T07:59:22.409Z,27.24
2023-04-03T08:00:22.470Z,27.36
2023-04-03T08:01:22.427Z,27.32
2023-04-03T08:02:22.531Z,27.33
2023-04-03T08:03:22.723Z,27.33
2023-04-03T08:04:23.375Z,27.27
2023-04-03T08:05:22.634Z,27.28
2023-04-03T08:06:33.037Z,27.33
2023-04-03T08:07:23.632Z,27.33
2023-04-03T08:08:22.624Z,27.32
2023-04-03T08:09:22.597Z,27.33
2023-04-03T08:10:22.676Z,27.32
2023-04-03T08:11:22.612Z,27.29
2023-04-03T08:12:22.598Z,27.33
2023-04-03T08:13:22.586Z,27.37
2023-04-03T08:14:22.605Z,27.38
2023-04-03T08:15:22.581Z,27.33
2023-04-03T08:16:22.591Z,27.35
2023-04-03T08:17:22.538Z,27.40
2023-04-03T08:18:22.546Z,27.38
2023-04-03T08:19:26.456Z,27.35
2023-04-03T08:20:22.650Z,27.33
2023-04-03T08:21:22.534Z,27.40
2023-04-03T08:22:22.498Z,27.31
2023-04-03T08:23:22.544Z,27.41
2023-04-03T08:24:22.536Z,27.37
2023-04-03T08:25:22.764Z,27.37
2023-04-03T08:26:22.551Z,27.31
2023-04-03T08:27:22.464Z,27.34
2023-04-03T08:28:22.428Z,27.35
2023-04-03T08:29:22.490Z,27.34
2023-04-03T08:30:22.491Z,27.32
2023-04-03T08:31:22.633Z,27.42
2023-04-03T08:32:22.454Z,27.34
2023-04-03T08:33:22.400Z,27.40
2023-04-03T08:34:22.465Z,27.35
2023-04-03T08:35:22.432Z,27.40
2023-04-03T08:36:22.505Z,27.34
2023-04-03T08:37:22.462Z,27.34
2023-04-03T08:38:22.450Z,27.33
2023-04-03T08:39:22.426Z,27.35
2023-04-03T08:40:22.408Z,27.33
2023-04-03T08:41:22.379Z,27.37
2023-04-03T08:42:22.484Z,27.37
2023-04-03T08:43:22.486Z,27.43
2023-04-03T08:44:22.526Z,27.35
2023-04-03T08:45:22.643Z,27.38
2023-04-03T08:46:22.663Z,27.40
2023-04-03T08:47:22.777Z,27.37
2023-04-03T08:48:22.822Z,27.34
2023-04-03T08:49:22.835Z,27.30
2023-04-03T08:50:22.733Z,27.33
2023-04-03T08:51:22.801Z,27.34
2023-04-03T08:52:22.859Z,27.33
2023-04-03T08:53:22.879Z,27.37
2023-04-03T08:54:22.855Z,27.32
2023-04-03T08:55:22.892Z,27.38
2023-04-03T08:56:22.945Z,27.38
2023-04-03T08:57:22.971Z,27.36
2023-04-03T08:58:23.005Z,27.39
2023-04-03T08:59:23.067Z,27.34
2023-04-03T09:00:23.118Z,27.36
2023-04-03T09:01:23.357Z,27.35
2023-04-03T09:02:23.182Z,27.33
2023-04-03T09:03:23.316Z,27.32
2023-04-03T09:04:23.324Z,27.31
2023-04-03T09:05:24.173Z,27.36
2023-04-03T09:06:23.357Z,27.35
2023-04-03T09:07:23.360Z,27.31
2023-04-03T09:08:23.435Z,27.32
2023-04-03T09:09:23.434Z,27.36
2023-04-03T09:10:23.483Z,27.31
2023-04-03T09:11:23.531Z,27.32
2023-04-03T09:12:23.597Z,27.31
2023-04-03T09:13:23.599Z,27.32
2023-04-03T09:14:23.613Z,27.29
2023-04-03T09:15:35.396Z,27.32
2023-04-03T09:16:24.718Z,27.29
2023-04-03T09:17:23.895Z,27.33
2023-04-03T09:18:23.664Z,27.35
2023-04-03T09:19:23.671Z,27.32
2023-04-03T09:20:23.653Z,27.35
2023-04-03T09:21:23.622Z,27.28
2023-04-03T09:22:23.671Z,27.35
2023-04-03T09:23:23.635Z,27.31
2023-04-03T09:24:23.622Z,27.32
2023-04-03T09:25:23.609Z,27.38
2023-04-03T09:26:23.595Z,27.36
2023-04-03T09:27:23.772Z,27.38
2023-04-03T09:28:23.607Z,27.35
2023-04-03T09:29:23.683Z,27.32
2023-04-03T09:30:23.685Z,27.36
2023-04-03T09:31:23.783Z,27.35
2023-04-03T09:32:24.264Z,27.38
2023-04-03T09:33:23.985Z,27.36
2023-04-03T09:34:23.854Z,27.35
2023-04-03T09:35:29.898Z,27.34
2023-04-03T09:36:25.782Z,27.35
2023-04-03T09:37:24.786Z,27.38
2023-04-03T09:38:23.922Z,27.38
2023-04-03T09:39:23.896Z,27.38
2023-04-03T09:40:23.897Z,27.32
2023-04-03T09:41:23.846Z,27.38
2023-04-03T09:42:23.868Z,27.36
2023-04-03T09:43:23.864Z,27.38
2023-04-03T09:44:23.845Z,27.34
2023-04-03T09:45:23.826Z,27.37
2023-04-03T09:46:23.832Z,27.34
2023-04-03T09:47:23.828Z,27.34
2023-04-03T09:48:23.928Z,27.35
2023-04-03T09:49:24.016Z,27.31
2023-04-03T09:50:23.980Z,27.27
2023-04-03T09:51:24.005Z,27.32
2023-04-03T09:52:24.022Z,27.37
2023-04-03T09:53:24.148Z,27.31
2023-04-03T09:54:24.093Z,27.38
2023-04-03T09:55:24.098Z,27.28
2023-04-03T09:56:24.224Z,27.32
2023-04-03T09:57:24.263Z,27.31
2023-04-03T09:58:24.291Z,27.35
2023-04-03T09:59:24.294Z,27.38
2023-04-03T10:00:24.332Z,27.34
2023-04-03T10:01:24.414Z,27.35
2023-04-03T10:02:24.389Z,27.26
2023-04-03T10:03:24.417Z,27.37
2023-04-03T10:04:24.481Z,27.32
2023-04-03T10:05:24.557Z,27.32
2023-04-03T10:06:24.795Z,27.32
2023-04-03T10:07:24.549Z,27.35
2023-04-03T10:08:24.597Z,27.32
2023-04-03T10:09:24.613Z,27.35
2023-04-03T10:10:24.701Z,27.34
2023-04-03T10:11:24.699Z,27.35
2023-04-03T10:12:24.731Z,27.31
2023-04-03T10:13:24.788Z,27.32
2023-04-03T10:14:24.746Z,27.29
2023-04-03T10:15:24.810Z,27.35
2023-04-03T10:16:24.905Z,27.32
2023-04-03T10:17:24.952Z,27.34
2023-04-03T10:18:25.122Z,27.29
2023-04-03T10:19:24.973Z,27.30
2023-04-03T10:20:25.035Z,27.33
2023-04-03T10:21:27.767Z,27.28
2023-04-03T10:22:25.062Z,27.37
2023-04-03T10:23:25.025Z,27.26
2023-04-03T10:24:25.019Z,27.31
2023-04-03T10:25:25.081Z,27.31
2023-04-03T10:26:25.029Z,27.32
2023-04-03T10:27:25.043Z,27.31
2023-04-03T10:28:24.996Z,27.33
2023-04-03T10:29:25.015Z,27.32
2023-04-03T10:30:25.326Z,27.26
2023-04-03T10:31:25.804Z,27.29
2023-04-03T10:32:25.020Z,27.29
2023-04-03T10:33:24.976Z,27.40
2023-04-03T10:34:24.934Z,27.33
2023-04-03T10:35:24.944Z,27.37
2023-04-03T10:36:24.995Z,27.33
2023-04-03T10:37:25.040Z,27.37
2023-04-03T10:38:24.922Z,27.34
2023-04-03T10:39:24.910Z,27.35
2023-04-03T10:40:24.924Z,27.36
2023-04-03T10:41:24.870Z,27.31
2023-04-03T10:42:24.901Z,27.34
2023-04-03T10:43:24.898Z,27.33
2023-04-03T10:44:24.892Z,27.29
2023-04-03T10:45:25.834Z,27.31
2023-04-03T10:46:24.892Z,27.27
2023-04-03T10:47:24.908Z,27.31
2023-04-03T10:48:24.888Z,27.33
2023-04-03T10:49:24.826Z,27.35
2023-04-03T10:50:24.846Z,27.34
2023-04-03T10:51:24.841Z,27.31
2023-04-03T10:52:24.841Z,27.35
2023-04-03T10:53:24.880Z,27.27
2023-04-03T10:54:24.815Z,27.37
2023-04-03T10:55:24.819Z,27.34
2023-04-03T10:56:24.763Z,27.28
2023-04-03T10:57:24.877Z,27.28
2023-04-03T10:58:24.796Z,27.30
2023-04-03T10:59:24.795Z,27.26
2023-04-03T11:00:24.779Z,27.33
2023-04-03T11:01:24.798Z,27.31
2023-04-03T11:02:24.837Z,27.34
2023-04-03T11:03:24.841Z,27.27
2023-04-03T11:04:24.782Z,27.27
2023-04-03T11:05:24.749Z,27.28
2023-04-03T11:06:24.745Z,27.30
2023-04-03T11:07:24.698Z,27.27
2023-04-03T11:08:24.730Z,27.28
2023-04-03T11:09:24.901Z,27.30
2023-04-03T11:10:24.729Z,27.33
2023-04-03T11:11:24.674Z,27.31
2023-04-03T11:12:24.788Z,27.33
2023-04-03T11:13:24.640Z,27.30
2023-04-03T11:14:24.650Z,27.28
2023-04-03T11:15:25.382Z,27.31
2023-04-03T11:16:24.799Z,27.37
2023-04-03T11:17:24.775Z,27.34
2023-04-03T11:18:24.719Z,27.33
2023-04-03T11:19:24.737Z,27.42
2023-04-03T11:20:24.736Z,27.40
2023-04-03T11:21:24.801Z,27.39
2023-04-03T11:22:24.798Z,27.37
2023-04-03T11:23:25.619Z,27.45
2023-04-03T11:24:24.865Z,27.39
2023-04-03T11:25:24.999Z,27.49
2023-04-03T11:26:24.941Z,27.40
2023-04-03T11:27:24.986Z,27.44
2023-04-03T11:28:25.012Z,27.43
2023-04-03T11:29:34.812Z,27.49
2023-04-03T11:30:25.977Z,27.43
2023-04-03T11:31:25.059Z,27.55
2023-04-03T11:32:25.049Z,27.55
2023-04-03T11:33:25.033Z,27.52
2023-04-03T11:34:25.051Z,27.57
2023-04-03T11:35:25.027Z,27.51
2023-04-03T11:36:30.932Z,27.54
2023-04-03T11:37:25.998Z,27.55
2023-04-03T11:38:24.962Z,27.54
2023-04-03T11:39:24.974Z,27.54
2023-04-03T11:40:24.979Z,27.51
2023-04-03T11:41:25.424Z,27.51
2023-04-03T11:42:25.046Z,27.52
2023-04-03T11:43:24.954Z,27.58
2023-04-03T11:44:24.948Z,27.58
2023-04-03T11:45:24.912Z,27.57
2023-04-03T11:46:24.923Z,27.58
2023-04-03T11:47:24.944Z,27.60
2023-04-03T11:48:25.394Z,27.57
2023-04-03T11:49:24.888Z,27.63
2023-04-03T11:50:24.860Z,27.67
2023-04-03T11:51:25.357Z,27.57
2023-04-03T11:52:24.930Z,27.63
2023-04-03T11:53:24.918Z,27.63
2023-04-03T11:54:26.492Z,27.64
2023-04-03T11:55:25.951Z,27.60
2023-04-03T11:56:24.990Z,27.61
2023-04-03T11:57:25.046Z,27.64
2023-04-03T11:58:24.944Z,27.67
2023-04-03T11:59:24.902Z,27.66
2023-04-03T12:00:24.907Z,27.64
2023-04-03T12:01:25.784Z,27.64
2023-04-03T12:02:24.979Z,27.66
2023-04-03T12:03:25.110Z,27.67
2023-04-03T12:04:25.150Z,27.61
2023-04-03T12:05:24.899Z,27.70
2023-04-03T12:06:24.850Z,27.64
2023-04-03T12:07:24.855Z,27.66
2023-04-03T12:08:24.971Z,27.67
2023-04-03T12:09:25.033Z,27.67
2023-04-03T12:10:32.171Z,27.67
2023-04-03T12:11:25.898Z,27.69
2023-04-03T12:12:24.885Z,27.70
2023-04-03T12:13:25.005Z,27.67
2023-04-03T12:14:25.012Z,27.67
2023-04-03T12:15:24.971Z,27.67
2023-04-03T12:16:24.936Z,27.67
2023-04-03T12:17:24.867Z,27.72
2023-04-03T12:18:24.903Z,27.69
2023-04-03T12:19:35.508Z,27.72
2023-04-03T12:20:25.881Z,27.69
2023-04-03T12:21:24.864Z,27.70
2023-04-03T12:22:24.857Z,27.73
2023-04-03T12:23:25.319Z,27.73
2023-04-03T12:24:24.886Z,27.73
2023-04-03T12:25:24.879Z,27.66
2023-04-03T12:26:25.386Z,27.72
2023-04-03T12:27:24.803Z,27.72
2023-04-03T12:28:24.800Z,27.73
2023-04-03T12:29:24.905Z,27.72
2023-04-03T12:30:25.840Z,27.75
2023-04-03T12:31:24.793Z,27.71
2023-04-03T12:32:25.867Z,27.76
2023-04-03T12:33:24.890Z,27.72
2023-04-03T12:34:24.798Z,27.73
2023-04-03T12:35:24.802Z,27.73
2023-04-03T12:36:24.811Z,27.76
2023-04-03T12:37:24.842Z,27.73
2023-04-03T12:38:24.768Z,27.72
2023-04-03T12:39:24.762Z,27.75
2023-04-03T12:40:24.774Z,27.78
2023-04-03T12:41:24.784Z,27.75
2023-04-03T12:42:24.676Z,27.75
2023-04-03T12:43:24.779Z,27.73
2023-04-03T12:44:24.691Z,27.76
2023-04-03T12:45:24.890Z,27.81
2023-04-03T12:46:24.734Z,27.78
2023-04-03T12:47:24.785Z,27.81
2023-04-03T12:48:24.709Z,27.79
2023-04-03T12:49:24.711Z,27.78
2023-04-03T12:50:24.628Z,27.78
2023-04-03T12:51:24.709Z,27.79
2023-04-03T12:52:24.649Z,27.82
2023-04-03T12:53:24.678Z,27.76